Time;durP1;ratioP1;P1;durP2;ratioP2;P2;SDS_P1;SDS_P2;PMS_P1;PMS_P2;Temp;Humidity;BMP_temperature;BMP_pressure;BME280_temperature;BME280_humidity;BME280_pressure;Samples;Min_cycle;Max_cycle;Signal;HPM_P1;HPM_P2
2021/11/29 00:01:42;;;;;;;14.03;12.05;;;1.90;99.90;;;;;;1973871;72;21047;-76
2021/11/29 00:04:08;;;;;;;19.77;12.78;;;2.00;99.90;;;;;;1967082;72;21153;-77
2021/11/29 00:06:34;;;;;;;16.52;11.85;;;2.00;99.90;;;;;;1973867;73;21144;-75
2021/11/29 00:09:00;;;;;;;19.82;13.62;;;2.00;99.90;;;;;;1974120;72;21066;-75
2021/11/29 00:11:27;;;;;;;18.67;13.53;;;2.00;99.90;;;;;;1976267;72;21109;-75
2021/11/29 00:13:53;;;;;;;18.30;13.90;;;2.00;99.90;;;;;;1976874;72;21059;-75
2021/11/29 00:16:19;;;;;;;18.70;13.83;;;2.00;99.90;;;;;;1970532;72;21131;-75
2021/11/29 00:18:45;;;;;;;16.70;13.60;;;2.00;99.90;;;;;;1969721;72;21046;-76
2021/11/29 00:21:13;;;;;;;17.82;14.68;;;2.00;99.90;;;;;;1978238;72;21109;-76
2021/11/29 00:23:39;;;;;;;20.75;13.55;;;2.00;99.90;;;;;;1970144;72;21493;-76
2021/11/29 00:26:05;;;;;;;19.35;13.48;;;2.00;99.90;;;;;;1988395;72;21047;-75
2021/11/29 00:28:31;;;;;;;22.20;15.40;;;2.00;99.90;;;;;;1973835;73;21101;-75
2021/11/29 00:30:57;;;;;;;21.62;14.15;;;2.00;99.90;;;;;;1976797;72;21257;-76
2021/11/29 00:33:24;;;;;;;17.98;12.85;;;2.00;99.90;;;;;;1964580;72;21044;-76
2021/11/29 00:35:50;;;;;;;31.45;14.50;;;2.00;99.90;;;;;;1972123;72;21062;-75
2021/11/29 00:38:17;;;;;;;17.87;14.68;;;2.00;99.90;;;;;;1981506;72;21063;-75
2021/11/29 00:40:43;;;;;;;16.48;12.58;;;2.00;99.90;;;;;;1977843;72;21140;-76
2021/11/29 00:43:09;;;;;;;15.20;12.28;;;2.00;99.90;;;;;;1975703;72;21048;-77
2021/11/29 00:45:35;;;;;;;14.47;11.55;;;2.10;99.90;;;;;;1966864;72;21153;-76
2021/11/29 00:48:02;;;;;;;17.30;11.43;;;2.10;99.90;;;;;;1973959;73;21088;-76
2021/11/29 00:50:28;;;;;;;15.43;10.90;;;2.10;99.90;;;;;;1966798;72;21116;-75
2021/11/29 00:52:54;;;;;;;14.25;10.88;;;2.10;99.90;;;;;;1973052;72;21036;-77
2021/11/29 00:55:20;;;;;;;12.03;10.23;;;2.10;99.90;;;;;;1969018;72;21129;-75
2021/11/29 00:57:46;;;;;;;14.63;11.10;;;2.00;99.90;;;;;;1964239;72;21147;-75
2021/11/29 01:00:12;;;;;;;12.68;11.33;;;2.10;99.90;;;;;;1981543;72;21055;-75
2021/11/29 01:02:38;;;;;;;17.52;11.60;;;2.00;99.90;;;;;;1976701;72;21060;-76
2021/11/29 01:05:04;;;;;;;16.40;12.35;;;2.00;99.90;;;;;;1973736;72;21055;-74
2021/11/29 01:07:31;;;;;;;16.20;11.75;;;2.00;99.90;;;;;;1970552;72;21052;-76
2021/11/29 01:09:57;;;;;;;16.52;12.75;;;2.00;99.90;;;;;;1970499;72;21143;-76
2021/11/29 01:12:23;;;;;;;17.15;11.70;;;2.00;99.90;;;;;;1982902;72;21059;-76
2021/11/29 01:14:49;;;;;;;14.47;12.03;;;2.00;99.90;;;;;;1973933;73;21017;-75
2021/11/29 01:17:15;;;;;;;14.43;11.65;;;2.00;99.90;;;;;;1966443;72;21122;-76
2021/11/29 01:19:41;;;;;;;18.05;13.80;;;2.00;99.90;;;;;;1973932;73;21063;-75
2021/11/29 01:22:07;;;;;;;22.02;13.88;;;1.90;99.90;;;;;;1966300;72;21058;-75
2021/11/29 01:24:33;;;;;;;16.55;13.70;;;1.90;99.90;;;;;;1977815;72;21054;-76
2021/11/29 01:27:00;;;;;;;20.12;13.72;;;2.00;99.90;;;;;;1977838;72;21443;-75
2021/11/29 01:29:26;;;;;;;15.45;13.80;;;2.00;99.90;;;;;;1983262;72;21479;-76
2021/11/29 01:31:52;;;;;;;17.92;14.10;;;2.00;99.90;;;;;;1970434;72;21522;-75
2021/11/29 01:34:18;;;;;;;16.07;14.35;;;2.00;99.90;;;;;;1976512;72;21484;-76
2021/11/29 01:36:44;;;;;;;16.87;14.30;;;2.00;99.90;;;;;;1970123;72;21124;-75
2021/11/29 01:39:10;;;;;;;18.02;13.83;;;2.00;99.90;;;;;;1973715;72;21067;-76
2021/11/29 01:41:36;;;;;;;17.98;14.65;;;1.90;99.90;;;;;;1973719;72;21133;-76
2021/11/29 01:44:02;;;;;;;18.37;14.45;;;2.00;99.90;;;;;;1971423;72;21055;-75
2021/11/29 01:46:29;;;;;;;17.90;14.58;;;2.00;99.90;;;;;;1969427;72;21125;-75
2021/11/29 01:48:55;;;;;;;18.25;14.10;;;2.00;99.90;;;;;;1973311;72;21048;-75
2021/11/29 01:51:21;;;;;;;19.77;15.63;;;2.00;99.90;;;;;;1973891;73;21044;-75
2021/11/29 01:53:47;;;;;;;20.55;14.98;;;2.00;99.90;;;;;;1973881;73;21483;-75
2021/11/29 01:56:13;;;;;;;18.12;15.35;;;2.10;99.90;;;;;;1973784;73;21447;-75
2021/11/29 01:58:40;;;;;;;17.55;14.93;;;2.00;99.90;;;;;;1973323;72;21500;-74
2021/11/29 02:01:06;;;;;;;25.17;17.07;;;2.10;99.90;;;;;;1973806;72;21483;-75
2021/11/29 02:03:32;;;;;;;22.15;14.30;;;2.10;99.90;;;;;;1971866;72;21144;-77
2021/11/29 02:05:58;;;;;;;21.85;15.30;;;2.10;99.90;;;;;;1974462;72;21144;-75
2021/11/29 02:08:24;;;;;;;22.32;15.58;;;2.10;99.90;;;;;;1973741;72;21056;-75
2021/11/29 02:10:50;;;;;;;27.42;17.75;;;2.10;99.90;;;;;;1965390;72;21151;-77
2021/11/29 02:13:16;;;;;;;19.40;15.00;;;2.20;99.90;;;;;;1970852;72;21051;-76
2021/11/29 02:15:42;;;;;;;22.95;16.73;;;2.20;99.90;;;;;;1978168;72;21139;-76
2021/11/29 02:18:08;;;;;;;19.27;15.32;;;2.20;99.90;;;;;;1969046;72;21121;-76
2021/11/29 02:20:35;;;;;;;18.12;16.05;;;2.20;99.90;;;;;;1968781;72;21114;-77
2021/11/29 02:23:01;;;;;;;21.52;16.65;;;2.20;99.90;;;;;;1975365;72;21096;-77
2021/11/29 02:25:27;;;;;;;19.85;16.05;;;2.20;99.90;;;;;;1966852;72;21118;-76
2021/11/29 02:27:53;;;;;;;19.57;16.02;;;2.20;99.90;;;;;;1973132;72;21242;-75
2021/11/29 02:30:19;;;;;;;21.60;16.07;;;2.10;99.90;;;;;;1973806;73;21051;-76
2021/11/29 02:32:45;;;;;;;20.97;15.98;;;2.10;99.90;;;;;;1973570;72;21114;-77
2021/11/29 02:35:11;;;;;;;23.12;16.52;;;2.00;99.90;;;;;;1972249;72;21165;-76
2021/11/29 02:37:37;;;;;;;23.50;16.37;;;2.10;99.90;;;;;;1961936;72;21027;-77
2021/11/29 02:40:04;;;;;;;23.25;17.23;;;2.00;99.90;;;;;;1975490;72;21491;-77
2021/11/29 02:42:30;;;;;;;22.15;16.12;;;2.00;99.90;;;;;;1976831;72;21520;-77
2021/11/29 02:44:56;;;;;;;26.42;18.35;;;2.00;99.90;;;;;;1973831;72;21575;-76
2021/11/29 02:47:22;;;;;;;22.17;17.35;;;2.00;99.90;;;;;;1975697;72;21516;-75
2021/11/29 02:49:48;;;;;;;25.50;17.70;;;2.00;99.90;;;;;;1969920;72;21374;-77
2021/11/29 02:52:14;;;;;;;27.95;18.67;;;2.00;99.90;;;;;;1970488;72;21074;-76
2021/11/29 02:54:41;;;;;;;25.40;19.10;;;2.00;99.90;;;;;;1971216;72;21138;-77
2021/11/29 02:57:07;;;;;;;22.20;17.50;;;2.00;99.90;;;;;;1984566;72;21475;-77
2021/11/29 02:59:33;;;;;;;20.02;17.67;;;2.00;99.90;;;;;;1974370;72;21523;-76
2021/11/29 03:01:59;;;;;;;22.00;18.60;;;2.10;99.90;;;;;;1963631;72;21536;-77
2021/11/29 03:04:27;;;;;;;31.15;21.57;;;2.10;99.90;;;;;;1977009;72;21100;-76
2021/11/29 03:06:53;;;;;;;25.90;18.27;;;2.10;99.90;;;;;;1980030;72;21071;-77
2021/11/29 03:09:21;;;;;;;25.52;20.45;;;2.20;99.90;;;;;;1967028;72;21083;-75
2021/11/29 03:11:48;;;;;;;26.40;20.15;;;2.20;99.90;;;;;;1974927;72;21177;-75
2021/11/29 03:14:14;;;;;;;27.07;19.62;;;2.20;99.90;;;;;;1979117;72;21118;-75
2021/11/29 03:16:41;;;;;;;32.88;19.67;;;2.20;99.90;;;;;;1967022;72;21059;-76
2021/11/29 03:19:07;;;;;;;24.90;19.92;;;2.20;99.90;;;;;;1982451;72;21460;-76
2021/11/29 03:21:33;;;;;;;25.00;20.25;;;2.20;99.90;;;;;;1977051;72;21495;-75
2021/11/29 03:23:59;;;;;;;23.95;18.85;;;2.30;99.90;;;;;;1975189;72;21067;-76
2021/11/29 03:26:26;;;;;;;24.98;19.80;;;2.40;99.90;;;;;;1977859;72;21063;-76
2021/11/29 03:28:53;;;;;;;32.45;19.52;;;2.40;99.90;;;;;;1973916;73;21094;-75
2021/11/29 03:31:19;;;;;;;28.05;19.57;;;2.30;99.90;;;;;;1966572;72;21059;-77
2021/11/29 03:33:45;;;;;;;25.35;20.00;;;2.30;99.90;;;;;;1973963;73;21119;-76
2021/11/29 03:36:11;;;;;;;27.87;19.67;;;2.30;99.90;;;;;;1973750;72;21051;-75
2021/11/29 03:38:37;;;;;;;30.88;19.07;;;2.20;99.90;;;;;;1971919;72;21035;-74
2021/11/29 03:41:03;;;;;;;28.90;21.15;;;2.20;99.90;;;;;;1971914;72;21062;-77
2021/11/29 03:43:30;;;;;;;31.40;22.42;;;2.30;99.90;;;;;;1980795;72;21076;-76
2021/11/29 03:45:56;;;;;;;32.53;21.95;;;2.20;99.90;;;;;;1975475;72;21094;-76
2021/11/29 03:48:22;;;;;;;30.52;22.75;;;2.20;99.90;;;;;;1969982;72;21169;-74
2021/11/29 03:50:48;;;;;;;30.75;20.80;;;2.30;99.90;;;;;;1981547;72;21036;-77
2021/11/29 03:53:14;;;;;;;33.95;21.82;;;2.20;99.90;;;;;;1975130;72;21169;-76
2021/11/29 03:55:40;;;;;;;27.25;20.25;;;2.20;99.90;;;;;;1973629;72;21157;-75
2021/11/29 03:58:06;;;;;;;27.70;19.92;;;2.20;99.90;;;;;;1967516;72;21136;-77
2021/11/29 04:00:33;;;;;;;28.25;21.45;;;2.20;99.90;;;;;;1981601;72;21167;-75
2021/11/29 04:02:59;;;;;;;27.77;18.50;;;2.20;99.90;;;;;;1981762;72;21000;-77
2021/11/29 04:05:25;;;;;;;29.27;18.55;;;2.20;99.90;;;;;;1978258;72;21050;-76
2021/11/29 04:07:51;;;;;;;24.95;18.15;;;2.20;99.90;;;;;;1968144;72;21063;-76
2021/11/29 04:10:17;;;;;;;30.27;19.37;;;2.20;99.90;;;;;;1973911;73;21039;-76
2021/11/29 04:12:43;;;;;;;26.23;20.52;;;2.20;99.90;;;;;;1973653;72;21095;-78
2021/11/29 04:15:09;;;;;;;31.00;20.52;;;2.30;99.90;;;;;;1944843;72;21148;-76
2021/11/29 04:17:38;;;;;;;26.30;18.82;;;2.20;99.90;;;;;;1970110;72;21464;-77
2021/11/29 04:20:03;;;;;;;28.60;19.25;;;2.20;99.90;;;;;;1970844;72;21157;-77
2021/11/29 04:22:30;;;;;;;27.17;19.20;;;2.20;99.90;;;;;;1976769;72;21463;-75
2021/11/29 04:24:59;;;;;;;29.18;19.48;;;2.10;99.90;;;;;;1971877;72;21478;-75
2021/11/29 04:27:23;;;;;;;29.60;20.12;;;2.10;99.90;;;;;;1966123;72;21107;-76
2021/11/29 04:29:50;;;;;;;25.95;20.15;;;2.10;99.90;;;;;;1969766;72;21056;-76
2021/11/29 04:32:16;;;;;;;36.38;20.95;;;2.20;99.90;;;;;;1982229;72;21067;-75
2021/11/29 04:34:42;;;;;;;27.80;20.15;;;2.10;99.90;;;;;;1972973;72;21102;-78
2021/11/29 04:37:08;;;;;;;28.80;19.95;;;2.10;99.90;;;;;;1971058;72;21063;-77
2021/11/29 04:39:34;;;;;;;28.38;20.27;;;2.10;99.90;;;;;;1965200;72;21132;-77
2021/11/29 04:42:01;;;;;;;36.25;21.55;;;2.00;99.90;;;;;;1964372;72;21071;-76
2021/11/29 04:44:27;;;;;;;26.87;19.73;;;2.00;99.90;;;;;;1973871;72;21467;-76
2021/11/29 04:46:53;;;;;;;26.70;19.60;;;2.10;99.90;;;;;;1981073;72;21144;-76
2021/11/29 04:49:19;;;;;;;28.38;21.05;;;2.00;99.90;;;;;;1972384;72;21043;-75
2021/11/29 04:51:45;;;;;;;33.10;20.75;;;2.00;99.90;;;;;;1973838;72;21175;-74
2021/11/29 04:54:12;;;;;;;31.62;21.75;;;2.10;99.90;;;;;;1972987;72;21054;-74
2021/11/29 04:56:38;;;;;;;30.72;21.07;;;2.10;99.90;;;;;;1968039;72;21176;-75
2021/11/29 04:59:04;;;;;;;31.35;21.42;;;2.10;99.90;;;;;;1972988;72;21130;-77
2021/11/29 05:01:30;;;;;;;33.33;21.27;;;2.20;99.90;;;;;;1966338;72;21059;-74
2021/11/29 05:03:56;;;;;;;28.62;19.98;;;2.20;99.90;;;;;;1977704;72;21109;-75
2021/11/29 05:06:22;;;;;;;33.25;20.48;;;2.20;99.90;;;;;;1979067;72;21177;-74
2021/11/29 05:08:48;;;;;;;26.20;18.75;;;2.20;99.90;;;;;;1973832;73;21463;-75
2021/11/29 05:11:14;;;;;;;33.80;19.50;;;2.20;99.90;;;;;;1973791;73;21413;-76
2021/11/29 05:13:41;;;;;;;28.25;18.52;;;2.20;99.90;;;;;;1973781;72;21480;-76
2021/11/29 05:16:07;;;;;;;24.98;19.07;;;2.30;99.90;;;;;;1972360;72;21080;-76
2021/11/29 05:18:33;;;;;;;32.35;19.10;;;2.20;99.90;;;;;;1971869;72;21058;-76
2021/11/29 05:20:59;;;;;;;30.60;19.50;;;2.20;99.90;;;;;;1982958;72;21136;-75
2021/11/29 05:23:25;;;;;;;29.87;19.12;;;2.20;99.90;;;;;;1973553;72;21028;-75
2021/11/29 05:25:51;;;;;;;24.10;17.95;;;2.20;99.90;;;;;;1973775;72;21184;-75
2021/11/29 05:28:17;;;;;;;29.60;19.32;;;2.20;99.90;;;;;;1976395;72;21129;-75
2021/11/29 05:30:43;;;;;;;24.60;19.27;;;2.30;99.90;;;;;;1973796;73;21051;-73
2021/11/29 05:33:10;;;;;;;28.45;19.82;;;2.20;99.90;;;;;;1973826;72;21137;-76
2021/11/29 05:35:36;;;;;;;32.53;20.05;;;2.20;99.90;;;;;;1973939;73;21029;-76
2021/11/29 05:38:02;;;;;;;30.92;18.82;;;2.20;99.90;;;;;;1964807;72;21064;-74
2021/11/29 05:40:28;;;;;;;24.55;18.10;;;2.20;99.90;;;;;;1981752;72;21133;-76
2021/11/29 05:42:54;;;;;;;23.57;17.25;;;2.20;99.90;;;;;;1981459;72;21140;-75
2021/11/29 05:45:20;;;;;;;25.90;18.00;;;2.30;99.90;;;;;;1975496;72;21113;-76
2021/11/29 05:47:46;;;;;;;26.93;19.10;;;2.30;99.90;;;;;;1973809;72;21110;-77
2021/11/29 05:50:12;;;;;;;29.12;18.73;;;2.30;99.90;;;;;;1973617;72;21079;-76
2021/11/29 05:52:39;;;;;;;34.45;19.57;;;2.30;99.90;;;;;;1977201;72;21504;-74
2021/11/29 05:55:05;;;;;;;27.17;19.35;;;2.30;99.90;;;;;;1973808;73;21499;-75
2021/11/29 05:57:31;;;;;;;27.40;18.05;;;2.30;99.90;;;;;;1974067;73;21420;-77
2021/11/29 05:59:57;;;;;;;24.92;17.37;;;2.30;99.90;;;;;;1969762;72;21044;-75
2021/11/29 06:02:23;;;;;;;31.00;18.70;;;2.30;99.90;;;;;;1963394;72;21139;-80
2021/11/29 06:04:50;;;;;;;26.20;18.05;;;2.30;99.90;;;;;;1963978;72;21050;-78
2021/11/29 06:07:16;;;;;;;22.95;16.73;;;2.30;99.90;;;;;;1975349;72;21736;-80
2021/11/29 06:09:42;;;;;;;25.80;17.95;;;2.30;99.90;;;;;;1973637;72;21537;-77
2021/11/29 06:12:08;;;;;;;26.68;18.45;;;2.30;99.90;;;;;;1970579;72;21545;-80
2021/11/29 06:14:34;;;;;;;25.40;17.20;;;2.20;99.90;;;;;;1973766;73;21020;-79
2021/11/29 06:17:00;;;;;;;25.30;17.40;;;2.30;99.90;;;;;;1970833;72;21058;-80
2021/11/29 06:19:26;;;;;;;25.15;17.25;;;2.30;99.90;;;;;;1970541;72;21164;-78
2021/11/29 06:21:54;;;;;;;24.55;17.50;;;2.20;99.90;;;;;;1970364;72;21083;-78
2021/11/29 06:24:22;;;;;;;26.90;17.50;;;2.20;99.90;;;;;;1981156;72;21067;-78
2021/11/29 06:26:48;;;;;;;24.70;17.75;;;2.20;99.90;;;;;;1981470;72;21218;-78
2021/11/29 06:29:14;;;;;;;23.22;17.42;;;2.20;99.90;;;;;;1974112;72;20992;-76
2021/11/29 06:31:41;;;;;;;24.05;17.95;;;2.20;99.90;;;;;;1965469;72;21059;-79
2021/11/29 06:34:07;;;;;;;25.57;16.42;;;2.20;99.90;;;;;;1971235;72;21548;-82
2021/11/29 06:36:34;;;;;;;24.40;17.23;;;2.30;99.90;;;;;;1972758;72;21136;-81
2021/11/29 06:39:00;;;;;;;43.23;17.17;;;2.30;99.90;;;;;;1973868;73;21044;-77
2021/11/29 06:41:26;;;;;;;27.20;16.23;;;2.20;99.90;;;;;;1971343;72;21101;-82
2021/11/29 06:43:52;;;;;;;20.62;16.20;;;2.20;99.90;;;;;;1974765;72;21067;-82
2021/11/29 06:46:18;;;;;;;29.25;15.90;;;2.20;99.90;;;;;;1967178;72;21051;-78
2021/11/29 06:48:44;;;;;;;36.77;16.10;;;2.40;99.90;;;;;;1969549;72;21062;-78
2021/11/29 06:51:10;;;;;;;24.25;15.38;;;2.40;99.90;;;;;;1970733;72;21058;-78
2021/11/29 06:53:36;;;;;;;23.57;14.83;;;2.30;99.90;;;;;;1989008;72;21074;-79
2021/11/29 06:56:03;;;;;;;21.82;15.23;;;2.30;99.90;;;;;;1974025;73;21401;-81
2021/11/29 06:58:29;;;;;;;23.22;15.00;;;2.20;99.90;;;;;;1971874;72;21058;-77
2021/11/29 07:00:55;;;;;;;20.40;15.15;;;2.20;99.90;;;;;;1976617;72;21128;-77
2021/11/29 07:03:21;;;;;;;25.08;15.35;;;2.30;99.90;;;;;;1980956;72;21047;-76
2021/11/29 07:05:48;;;;;;;19.98;14.98;;;2.30;99.90;;;;;;1967887;72;21136;-78
2021/11/29 07:08:15;;;;;;;20.08;14.50;;;2.30;99.90;;;;;;1981634;72;21042;-81
2021/11/29 07:10:41;;;;;;;21.07;14.83;;;2.30;99.90;;;;;;1972629;72;21016;-78
2021/11/29 07:13:07;;;;;;;21.40;14.05;;;2.30;99.90;;;;;;1972068;72;21091;-79
2021/11/29 07:15:33;;;;;;;29.72;15.03;;;2.20;99.90;;;;;;1972798;72;21511;-80
2021/11/29 07:18:00;;;;;;;22.80;15.03;;;2.30;99.90;;;;;;1971716;72;21500;-79
2021/11/29 07:20:26;;;;;;;21.40;13.62;;;2.30;99.90;;;;;;1973665;73;21180;-77
2021/11/29 07:22:52;;;;;;;16.40;13.20;;;2.20;99.90;;;;;;1973827;73;21060;-77
2021/11/29 07:25:18;;;;;;;22.55;13.62;;;2.20;99.90;;;;;;1970128;72;21063;-79
2021/11/29 07:27:44;;;;;;;20.23;12.90;;;2.20;99.90;;;;;;1973730;72;21032;-80
2021/11/29 07:30:11;;;;;;;19.10;12.20;;;2.30;99.90;;;;;;1973765;72;21144;-77
2021/11/29 07:32:37;;;;;;;23.32;12.60;;;2.30;99.90;;;;;;1970862;72;21091;-76
2021/11/29 07:35:03;;;;;;;26.23;12.10;;;2.20;99.90;;;;;;1970331;72;21074;-78
2021/11/29 07:37:29;;;;;;;17.52;11.08;;;2.20;99.90;;;;;;1971408;72;21011;-77
2021/11/29 07:39:55;;;;;;;19.98;12.05;;;2.20;99.90;;;;;;1972676;72;21104;-75
2021/11/29 07:42:21;;;;;;;18.15;11.30;;;2.20;99.90;;;;;;1977303;72;21054;-76
2021/11/29 07:44:47;;;;;;;16.15;11.83;;;2.30;99.90;;;;;;1963145;72;21050;-75
2021/11/29 07:47:13;;;;;;;14.68;11.45;;;2.30;99.90;;;;;;1969993;72;21059;-75
2021/11/29 07:49:40;;;;;;;14.05;10.43;;;2.30;99.90;;;;;;1971001;72;21050;-77
2021/11/29 07:52:08;;;;;;;14.28;9.40;;;2.40;99.90;;;;;;1967968;72;21135;-78
2021/11/29 07:54:34;;;;;;;19.37;10.15;;;2.40;99.90;;;;;;1984007;72;21054;-80
2021/11/29 07:57:00;;;;;;;19.15;10.38;;;2.40;99.90;;;;;;1978438;72;21039;-77
2021/11/29 07:59:31;;;;;;;18.02;9.83;;;2.50;99.90;;;;;;1979879;72;21091;-79
2021/11/29 08:01:54;;;;;;;21.97;9.25;;;2.50;99.90;;;;;;1967194;72;21075;-79
2021/11/29 08:04:21;;;;;;;15.98;8.90;;;2.50;99.90;;;;;;1975961;72;21433;-79
2021/11/29 08:06:48;;;;;;;16.82;8.23;;;2.50;99.90;;;;;;1975037;72;21106;-78
2021/11/29 08:09:14;;;;;;;13.80;8.45;;;2.60;99.90;;;;;;1974954;72;21448;-78
2021/11/29 08:11:40;;;;;;;15.85;8.40;;;2.60;99.90;;;;;;1970922;72;21487;-78
2021/11/29 08:14:06;;;;;;;10.20;8.13;;;2.60;99.90;;;;;;1973992;72;21505;-78
2021/11/29 08:16:32;;;;;;;12.15;7.78;;;2.60;99.90;;;;;;1976554;72;21082;-78
2021/11/29 08:18:58;;;;;;;13.78;8.65;;;2.60;99.90;;;;;;1973795;72;21059;-79
2021/11/29 08:21:25;;;;;;;11.30;7.35;;;2.50;99.90;;;;;;1966453;72;21036;-79
2021/11/29 08:23:51;;;;;;;16.25;7.22;;;2.50;99.90;;;;;;1973925;73;21157;-77
2021/11/29 08:26:17;;;;;;;13.20;9.00;;;2.50;99.90;;;;;;1973808;72;21106;-77
2021/11/29 08:28:43;;;;;;;17.62;7.58;;;2.50;99.90;;;;;;1973750;72;21063;-77
2021/11/29 08:31:09;;;;;;;13.28;6.90;;;2.50;99.90;;;;;;1973751;72;21152;-78
2021/11/29 08:33:35;;;;;;;8.60;7.05;;;2.50;99.90;;;;;;1949749;73;21020;-78
2021/11/29 08:36:01;;;;;;;23.15;8.30;;;2.60;99.90;;;;;;1972086;72;21101;-78
2021/11/29 08:38:27;;;;;;;11.93;8.10;;;2.60;99.90;;;;;;1975364;72;21141;-78
2021/11/29 08:40:54;;;;;;;14.10;7.78;;;2.70;99.90;;;;;;1974354;73;21076;-76
2021/11/29 08:43:20;;;;;;;12.07;6.97;;;2.70;99.90;;;;;;1974091;72;21161;-76
2021/11/29 08:45:48;;;;;;;9.13;6.90;;;2.80;99.90;;;;;;1974327;72;21122;-76
2021/11/29 08:48:14;;;;;;;14.75;7.25;;;2.90;99.90;;;;;;1974073;72;21511;-77
2021/11/29 08:50:40;;;;;;;13.83;8.00;;;2.90;99.90;;;;;;1975889;72;21560;-76
2021/11/29 08:53:06;;;;;;;9.53;6.67;;;3.10;99.90;;;;;;1971772;72;21472;-77
2021/11/29 08:55:32;;;;;;;9.38;6.55;;;3.10;99.90;;;;;;1967392;72;21128;-75
2021/11/29 08:57:59;;;;;;;15.63;6.97;;;3.20;99.90;;;;;;1974135;73;21021;-75
2021/11/29 09:00:25;;;;;;;10.30;5.78;;;3.30;99.90;;;;;;1967449;72;21561;-76
2021/11/29 09:02:51;;;;;;;9.18;6.22;;;3.30;99.90;;;;;;1973684;72;21050;-77
2021/11/29 09:05:18;;;;;;;9.43;5.85;;;3.30;99.90;;;;;;1983151;72;21136;-76
2021/11/29 09:07:44;;;;;;;14.78;6.05;;;3.30;99.90;;;;;;1975888;72;21046;-77
2021/11/29 09:10:11;;;;;;;10.03;6.42;;;3.50;99.90;;;;;;1975989;72;21066;-76
2021/11/29 09:12:37;;;;;;;9.38;6.00;;;3.50;99.90;;;;;;1967000;72;21180;-76
2021/11/29 09:15:03;;;;;;;12.35;6.40;;;3.70;99.90;;;;;;1971706;72;21043;-76
2021/11/29 09:17:30;;;;;;;19.23;6.42;;;3.80;99.90;;;;;;1976389;72;21063;-75
2021/11/29 09:19:57;;;;;;;11.85;5.87;;;3.90;99.90;;;;;;1974255;73;21052;-75
2021/11/29 09:22:23;;;;;;;10.82;5.70;;;3.90;99.90;;;;;;1973300;72;21074;-76
2021/11/29 09:24:50;;;;;;;14.83;6.47;;;4.00;99.90;;;;;;1974244;72;21059;-76
2021/11/29 09:27:16;;;;;;;14.70;5.90;;;4.00;99.90;;;;;;1970125;72;21433;-75
2021/11/29 09:29:45;;;;;;;16.67;6.17;;;3.90;99.90;;;;;;1973804;73;21464;-75
2021/11/29 09:32:10;;;;;;;8.38;5.95;;;4.00;99.90;;;;;;1969950;72;21164;-77
2021/11/29 09:34:36;;;;;;;6.28;4.45;;;3.80;99.90;;;;;;1985635;72;21106;-76
2021/11/29 09:37:02;;;;;;;10.08;5.08;;;3.80;99.90;;;;;;1974043;72;21059;-77
2021/11/29 09:39:28;;;;;;;12.25;4.55;;;3.60;99.90;;;;;;1971039;72;21071;-75
2021/11/29 09:41:54;;;;;;;8.85;5.20;;;3.40;99.90;;;;;;1935884;72;21132;-74
2021/11/29 09:44:21;;;;;;;6.97;5.08;;;3.40;99.90;;;;;;1975000;72;21097;-74
2021/11/29 09:46:47;;;;;;;12.43;5.20;;;3.50;99.90;;;;;;1979458;72;21105;-75
2021/11/29 09:49:13;;;;;;;9.85;4.87;;;3.50;99.90;;;;;;1981183;72;21063;-78
2021/11/29 09:51:39;;;;;;;8.10;5.17;;;3.60;99.90;;;;;;1967156;72;21129;-76
2021/11/29 09:54:07;;;;;;;9.73;4.85;;;3.50;99.90;;;;;;1976033;72;21047;-77
2021/11/29 09:56:33;;;;;;;6.62;4.35;;;3.50;99.90;;;;;;1983000;72;21072;-78
2021/11/29 09:58:59;;;;;;;10.38;4.53;;;3.60;99.90;;;;;;1974543;72;21050;-77
2021/11/29 10:01:25;;;;;;;8.95;4.67;;;3.60;99.90;;;;;;1977792;72;21120;-77
2021/11/29 10:03:51;;;;;;;11.15;4.75;;;3.80;99.90;;;;;;1974412;72;21443;-76
2021/11/29 10:06:17;;;;;;;6.85;4.17;;;4.10;99.90;;;;;;1969933;72;21450;-78
2021/11/29 10:08:43;;;;;;;9.05;4.45;;;4.90;99.90;;;;;;1975127;72;21504;-77
2021/11/29 10:11:11;;;;;;;6.25;3.52;;;5.40;99.90;;;;;;1969534;72;21231;-76
2021/11/29 10:13:37;;;;;;;5.40;3.40;;;5.10;99.90;;;;;;1981173;72;21156;-77
2021/11/29 10:16:03;;;;;;;5.45;3.67;;;5.00;99.90;;;;;;1981670;72;21456;-74
2021/11/29 10:18:30;;;;;;;9.70;4.70;;;5.70;99.90;;;;;;1976424;72;21560;-76
2021/11/29 10:20:56;;;;;;;5.35;3.60;;;5.90;99.90;;;;;;1977224;72;21444;-75
2021/11/29 10:23:22;;;;;;;8.75;4.08;;;5.70;99.90;;;;;;1977074;72;21063;-78
2021/11/29 10:25:48;;;;;;;5.47;3.75;;;5.50;99.90;;;;;;1974561;73;21000;-76
2021/11/29 10:28:14;;;;;;;9.50;3.90;;;5.30;99.90;;;;;;1971113;72;21055;-77
2021/11/29 10:30:40;;;;;;;12.65;4.60;;;5.20;99.90;;;;;;1969676;72;21165;-75
2021/11/29 10:33:06;;;;;;;7.10;2.85;;;5.20;99.90;;;;;;1974718;72;21176;-75
2021/11/29 10:35:38;;;;;;;5.47;3.12;;;5.10;99.90;;;;;;1975143;72;21055;-78
2021/11/29 10:38:05;;;;;;;8.60;3.67;;;4.70;99.90;;;;;;1975981;73;21021;-77
2021/11/29 10:40:31;;;;;;;5.35;2.55;;;4.50;99.90;;;;;;1974694;73;21024;-77
2021/11/29 10:42:59;;;;;;;5.83;3.05;;;4.50;99.90;;;;;;1970015;72;21044;-77
2021/11/29 10:45:25;;;;;;;6.40;3.27;;;4.70;99.90;;;;;;1972359;72;21054;-77
2021/11/29 10:47:52;;;;;;;6.97;3.50;;;4.90;99.90;;;;;;1984673;72;21463;-77
2021/11/29 10:50:18;;;;;;;5.60;2.80;;;4.90;99.90;;;;;;1980418;72;21167;-78
2021/11/29 10:52:45;;;;;;;5.97;3.02;;;5.20;99.90;;;;;;1973781;72;21125;-78
2021/11/29 10:55:12;;;;;;;5.75;3.25;;;5.50;99.90;;;;;;1973897;72;21139;-78
2021/11/29 10:57:38;;;;;;;6.67;3.25;;;5.40;99.90;;;;;;1971313;72;21138;-79
2021/11/29 11:00:04;;;;;;;7.03;3.10;;;5.90;99.90;;;;;;1984364;72;21263;-78
2021/11/29 11:02:32;;;;;;;8.50;3.45;;;6.20;99.90;;;;;;1971504;72;21109;-77
2021/11/29 11:04:58;;;;;;;6.47;2.70;;;6.00;99.90;;;;;;1963248;72;21047;-78
2021/11/29 11:07:25;;;;;;;16.85;3.33;;;5.70;99.90;;;;;;1975913;72;21121;-79
2021/11/29 11:09:51;;;;;;;4.67;2.70;;;5.60;99.90;;;;;;1963700;72;21106;-78
2021/11/29 11:12:18;;;;;;;9.50;3.75;;;5.30;99.90;;;;;;1973890;72;21060;-77
2021/11/29 11:14:47;;;;;;;10.82;3.05;;;5.20;99.90;;;;;;1973408;72;21059;-78
2021/11/29 11:17:13;;;;;;;5.28;3.00;;;5.10;99.90;;;;;;1971974;72;21502;-76
2021/11/29 11:19:40;;;;;;;6.67;3.37;;;4.80;99.90;;;;;;1978680;72;21095;-79
2021/11/29 11:22:06;;;;;;;5.90;3.50;;;4.60;99.90;;;;;;1976771;72;21130;-78
2021/11/29 11:24:32;;;;;;;6.65;3.42;;;4.60;99.90;;;;;;1973946;72;21035;-77
2021/11/29 11:26:59;;;;;;;7.47;3.25;;;4.60;99.90;;;;;;1973752;72;21036;-77
2021/11/29 11:29:25;;;;;;;4.60;2.80;;;4.30;99.90;;;;;;1976344;72;21036;-77
2021/11/29 11:31:51;;;;;;;7.40;4.35;;;4.20;99.90;;;;;;1974002;73;21047;-76
2021/11/29 11:34:17;;;;;;;7.12;3.37;;;4.10;99.90;;;;;;1973754;72;21153;-78
2021/11/29 11:36:43;;;;;;;5.72;3.62;;;4.10;99.90;;;;;;1986741;72;21048;-78
2021/11/29 11:39:10;;;;;;;6.72;3.33;;;4.10;99.90;;;;;;1974021;73;21137;-78
2021/11/29 11:41:36;;;;;;;5.75;3.85;;;4.10;99.90;;;;;;1970872;72;21137;-78
2021/11/29 11:44:02;;;;;;;7.33;3.05;;;4.20;99.90;;;;;;1974248;73;21024;-76
2021/11/29 11:46:28;;;;;;;9.93;4.33;;;4.10;99.90;;;;;;1970766;72;21141;-77
2021/11/29 11:48:54;;;;;;;7.67;3.85;;;4.20;99.90;;;;;;1973338;72;21063;-77
2021/11/29 11:51:20;;;;;;;8.70;3.67;;;4.60;99.90;;;;;;1973787;73;21048;-76
2021/11/29 11:53:46;;;;;;;8.63;4.17;;;4.70;99.90;;;;;;1973858;72;21374;-78
2021/11/29 11:56:13;;;;;;;5.20;3.15;;;4.70;99.90;;;;;;1973950;72;21055;-78
2021/11/29 11:58:39;;;;;;;7.67;3.35;;;4.60;99.90;;;;;;1950886;72;21039;-79
2021/11/29 12:01:05;;;;;;;5.42;2.95;;;4.50;99.90;;;;;;1977579;72;21115;-78
2021/11/29 12:03:32;;;;;;;10.90;4.20;;;4.30;99.90;;;;;;1983187;72;21114;-78
2021/11/29 12:05:59;;;;;;;8.70;3.50;;;4.00;99.90;;;;;;1970239;72;21067;-77
2021/11/29 12:08:25;;;;;;;5.03;2.83;;;4.20;99.90;;;;;;1976990;72;21067;-76
2021/11/29 12:10:51;;;;;;;7.03;3.17;;;4.30;99.90;;;;;;1971513;72;21051;-80
2021/11/29 12:13:19;;;;;;;6.70;3.65;;;4.40;99.90;;;;;;1981589;72;21185;-79
2021/11/29 12:15:45;;;;;;;5.55;2.90;;;4.40;99.90;;;;;;1970619;72;21141;-77
2021/11/29 12:18:13;;;;;;;12.15;3.22;;;4.40;99.90;;;;;;1970527;72;21060;-78
2021/11/29 12:20:39;;;;;;;10.65;3.15;;;4.50;99.90;;;;;;1973930;72;21067;-79
2021/11/29 12:23:05;;;;;;;8.65;3.12;;;4.60;99.90;;;;;;1976877;72;21032;-78
2021/11/29 12:25:32;;;;;;;4.15;2.92;;;4.70;99.90;;;;;;1973892;72;21072;-78
2021/11/29 12:27:59;;;;;;;9.45;4.37;;;4.70;99.90;;;;;;1973783;72;21071;-80
2021/11/29 12:30:26;;;;;;;5.87;3.67;;;4.70;99.90;;;;;;1976401;72;21062;-82
2021/11/29 12:32:52;;;;;;;11.83;4.60;;;4.80;99.90;;;;;;1977397;72;21189;-80
2021/11/29 12:35:18;;;;;;;8.83;3.80;;;4.80;99.90;;;;;;1976413;72;21463;-80
2021/11/29 12:37:44;;;;;;;11.78;5.00;;;5.00;99.90;;;;;;1974006;73;21496;-80